Time;durP1;ratioP1;P1;durP2;ratioP2;P2;SDS_P1;SDS_P2;PMS_P1;PMS_P2;Temp;Humidity;BMP_temperature;BMP_pressure;BME280_temperature;BME280_humidity;BME280_pressure;Samples;Min_cycle;Max_cycle;Signal;HPM_P1;HPM_P2
2024/04/08 00:00:29;;;;;;;0.20;0.20;;;;;;;11.87;56.87;99501.56;7363212;19;20099;-63
2024/04/08 00:02:55;;;;;;;0.10;0.10;;;;;;;11.79;57.36;99490.56;7365283;19;20027;-63
2024/04/08 00:05:21;;;;;;;0.10;0.10;;;;;;;11.81;57.45;99501.78;7366092;19;20014;-63
2024/04/08 00:07:47;;;;;;;0.10;0.10;;;;;;;11.66;57.74;99480.69;7365167;19;20015;-62
2024/04/08 00:10:13;;;;;;;0.10;0.10;;;;;;;11.63;57.75;99486.03;7366937;19;20014;-62
2024/04/08 00:12:42;;;;;;;0.10;0.10;;;;;;;11.69;58.10;99496.22;7366454;19;20014;-63
2024/04/08 00:15:08;;;;;;;0.00;0.00;;;;;;;11.67;58.59;99502.44;7366872;19;20019;-63
2024/04/08 00:17:34;;;;;;;0.10;0.10;;;;;;;11.63;58.45;99504.34;7365294;19;20015;-61
2024/04/08 00:20:00;;;;;;;0.10;0.10;;;;;;;11.60;58.25;99512.31;7365012;19;20347;-62
2024/04/08 00:22:25;;;;;;;0.10;0.10;;;;;;;11.57;58.10;99504.63;7359582;19;20034;-63
2024/04/08 00:24:54;;;;;;;0.10;0.10;;;;;;;11.55;57.97;99509.06;7364014;19;20039;-62
2024/04/08 00:27:20;;;;;;;0.10;0.10;;;;;;;11.52;57.79;99503.16;7367065;19;20036;-63
2024/04/08 00:29:46;;;;;;;0.10;0.10;;;;;;;11.44;57.95;99490.41;7364872;19;20526;-63
2024/04/08 00:32:12;;;;;;;0.10;0.10;;;;;;;11.39;57.83;99476.72;7364298;19;20011;-63
2024/04/08 00:34:39;;;;;;;0.00;0.00;;;;;;;11.40;58.07;99488.84;7365551;19;20017;-63
2024/04/08 00:37:04;;;;;;;0.10;0.10;;;;;;;11.36;58.46;99489.94;7363842;19;20042;-62
2024/04/08 00:39:29;;;;;;;0.10;0.10;;;;;;;11.33;58.19;99492.69;7366577;19;20006;-63
2024/04/08 00:41:55;;;;;;;0.10;0.10;;;;;;;11.30;58.15;99493.66;7364966;19;20015;-63
2024/04/08 00:44:20;;;;;;;0.10;0.10;;;;;;;11.28;58.43;99505.09;7358456;19;20478;-62
2024/04/08 00:46:46;;;;;;;0.15;0.15;;;;;;;11.25;57.89;99507.84;7363978;19;20014;-63
2024/04/08 00:49:13;;;;;;;0.10;0.10;;;;;;;11.22;58.07;99506.22;7358489;19;20415;-63
2024/04/08 00:51:39;;;;;;;0.10;0.10;;;;;;;11.11;58.39;99487.56;7363618;19;20041;-63
2024/04/08 00:54:04;;;;;;;0.00;0.00;;;;;;;11.15;57.82;99503.03;7361676;19;20010;-63
2024/04/08 00:56:31;;;;;;;0.10;0.10;;;;;;;11.11;58.63;99492.78;7362110;19;20399;-63
2024/04/08 00:58:56;;;;;;;0.10;0.10;;;;;;;11.08;58.36;99501.59;7359630;19;20482;-63
2024/04/08 01:01:22;;;;;;;0.10;0.10;;;;;;;11.05;58.85;99493.03;7364753;19;20038;-63
2024/04/08 01:03:48;;;;;;;0.00;0.00;;;;;;;11.05;58.93;99500.88;7366147;19;20003;-63
2024/04/08 01:06:14;;;;;;;0.10;0.10;;;;;;;11.03;58.81;99493.13;7363244;19;20029;-63
2024/04/08 01:08:40;;;;;;;0.10;0.10;;;;;;;11.02;58.55;99499.25;7353353;19;20340;-63
2024/04/08 01:11:09;;;;;;;0.10;0.10;;;;;;;11.00;58.92;99495.88;7364673;19;20017;-63
2024/04/08 01:13:35;;;;;;;0.10;0.10;;;;;;;10.92;58.80;99487.53;7361289;19;20024;-63
2024/04/08 01:16:01;;;;;;;0.10;0.10;;;;;;;10.96;58.70;99494.31;7362748;19;20007;-63
2024/04/08 01:18:27;;;;;;;0.08;0.08;;;;;;;10.85;59.10;99491.31;7362582;19;20017;-63
2024/04/08 01:20:52;;;;;;;0.10;0.10;;;;;;;10.78;58.71;99477.66;7364758;19;20018;-63
2024/04/08 01:23:20;;;;;;;0.10;0.10;;;;;;;10.92;58.60;99500.56;7362714;19;20074;-61
2024/04/08 01:25:45;;;;;;;0.05;0.05;;;;;;;10.89;58.96;99492.88;7358430;19;20014;-63
2024/04/08 01:28:11;;;;;;;0.10;0.10;;;;;;;10.85;59.51;99489.56;7363853;19;20767;-63
2024/04/08 01:30:36;;;;;;;0.00;0.00;;;;;;;10.74;59.63;99477.84;7360120;19;20021;-63
2024/04/08 01:33:02;;;;;;;0.10;0.10;;;;;;;10.86;59.18;99495.63;7363623;19;20006;-63
2024/04/08 01:35:27;;;;;;;0.10;0.10;;;;;;;10.84;59.95;99500.06;7360625;19;20006;-63
2024/04/08 01:37:52;;;;;;;0.10;0.10;;;;;;;10.83;59.44;99498.34;7363678;19;20086;-63
2024/04/08 01:40:18;;;;;;;0.10;0.10;;;;;;;10.83;58.79;99498.34;7363873;19;20046;-63
2024/04/08 01:42:43;;;;;;;0.10;0.10;;;;;;;10.82;59.79;99499.28;7360242;19;20023;-63
2024/04/08 01:45:09;;;;;;;0.10;0.10;;;;;;;10.80;59.43;99494.13;7364130;19;20407;-63
2024/04/08 01:47:34;;;;;;;0.10;0.10;;;;;;;10.77;59.78;99489.03;7364244;19;20086;-63
2024/04/08 01:49:59;;;;;;;0.10;0.10;;;;;;;10.78;59.87;99484.66;7362230;19;20629;-63
2024/04/08 01:52:25;;;;;;;0.10;0.10;;;;;;;10.76;60.04;99487.34;7358198;19;20034;-63
2024/04/08 01:54:50;;;;;;;0.10;0.10;;;;;;;10.78;60.09;99484.66;7362872;19;20009;-63
2024/04/08 01:57:16;;;;;;;0.10;0.10;;;;;;;10.77;60.41;99485.56;7359787;19;20006;-63
2024/04/08 01:59:41;;;;;;;0.10;0.10;;;;;;;10.79;60.02;99486.34;7361143;19;20339;-63
2024/04/08 02:02:06;;;;;;;0.10;0.10;;;;;;;10.77;60.03;99483.81;7362428;19;20003;-63
2024/04/08 02:04:32;;;;;;;0.10;0.10;;;;;;;10.80;60.21;99488.06;7355061;19;20042;-63
2024/04/08 02:06:57;;;;;;;0.10;0.10;;;;;;;10.80;60.21;99483.69;7358048;19;20015;-63
2024/04/08 02:09:23;;;;;;;0.10;0.10;;;;;;;10.82;60.50;99481.00;7362369;19;20014;-63
2024/04/08 02:11:48;;;;;;;0.10;0.10;;;;;;;10.84;60.04;99479.16;7360168;19;20946;-63
2024/04/08 02:14:13;;;;;;;0.10;0.10;;;;;;;10.61;59.91;99441.84;7362760;19;20035;-63
2024/04/08 02:16:39;;;;;;;0.10;0.10;;;;;;;10.71;60.43;99459.72;7360403;19;19999;-63
2024/04/08 02:19:04;;;;;;;0.10;0.10;;;;;;;10.84;60.62;99480.00;7365824;19;20018;-63
2024/04/08 02:21:30;;;;;;;0.10;0.10;;;;;;;10.86;60.84;99472.97;7358330;19;20028;-63
2024/04/08 02:23:55;;;;;;;0.10;0.10;;;;;;;10.87;61.03;99473.81;7361951;19;20006;-63
2024/04/08 02:26:21;;;;;;;0.10;0.10;;;;;;;10.90;61.17;99473.69;7362956;19;20006;-63
2024/04/08 02:28:46;;;;;;;0.10;0.10;;;;;;;10.90;61.46;99466.69;7364826;19;20017;-63
2024/04/08 02:31:11;;;;;;;0.10;0.10;;;;;;;10.93;61.48;99467.47;7358184;19;20011;-63
2024/04/08 02:33:37;;;;;;;0.10;0.10;;;;;;;10.94;60.84;99461.31;7363674;19;20013;-63
2024/04/08 02:36:04;;;;;;;0.10;0.10;;;;;;;10.83;60.67;99436.53;7361262;19;20014;-63
2024/04/08 02:38:30;;;;;;;0.10;0.10;;;;;;;10.98;60.39;99453.28;7364265;19;20010;-63
2024/04/08 02:40:55;;;;;;;0.10;0.10;;;;;;;10.98;61.06;99445.44;7362083;19;20014;-63
2024/04/08 02:43:22;;;;;;;0.10;0.10;;;;;;;11.00;60.88;99445.38;7356715;19;20025;-63
2024/04/08 02:45:48;;;;;;;0.10;0.10;;;;;;;11.01;61.44;99450.56;7350756;19;20027;-63
2024/04/08 02:48:15;;;;;;;0.10;0.10;;;;;;;10.98;61.42;99440.22;7360631;19;20018;-63
2024/04/08 02:50:41;;;;;;;0.10;0.10;;;;;;;11.04;61.21;99455.63;7355901;19;20045;-63
2024/04/08 02:53:06;;;;;;;0.10;0.10;;;;;;;10.98;61.60;99445.44;7364102;19;20139;-63
2024/04/08 02:55:33;;;;;;;0.10;0.10;;;;;;;11.02;61.64;99436.56;7354258;19;20007;-63
2024/04/08 02:57:58;;;;;;;0.10;0.10;;;;;;;11.04;61.76;99442.56;7363168;19;20060;-63
2024/04/08 03:00:24;;;;;;;0.10;0.10;;;;;;;11.05;61.84;99439.06;7361294;19;20652;-63
2024/04/08 03:02:49;;;;;;;0.10;0.10;;;;;;;11.00;61.76;99427.97;7360551;19;20034;-63
2024/04/08 03:05:15;;;;;;;0.10;0.10;;;;;;;11.06;62.06;99435.53;7357610;19;20082;-63
2024/04/08 03:07:40;;;;;;;0.10;0.10;;;;;;;11.06;61.94;99438.13;7360362;19;20045;-63
2024/04/08 03:10:06;;;;;;;0.10;0.10;;;;;;;10.96;60.66;99418.56;7362060;19;20454;-63
2024/04/08 03:12:32;;;;;;;0.10;0.10;;;;;;;11.07;61.00;99434.59;7359249;19;20023;-63
2024/04/08 03:14:57;;;;;;;0.10;0.10;;;;;;;10.95;60.50;99411.66;7337146;19;20014;-63
2024/04/08 03:17:23;;;;;;;0.10;0.10;;;;;;;10.98;60.50;99418.50;7361279;19;20014;-63
2024/04/08 03:19:55;;;;;;;0.05;0.05;;;;;;;11.02;61.16;99426.13;7360886;19;20006;-63
2024/04/08 03:22:21;;;;;;;0.00;0.00;;;;;;;11.04;61.04;99434.72;7363305;19;20597;-63
2024/04/08 03:24:47;;;;;;;0.10;0.10;;;;;;;11.05;61.24;99436.44;7357367;19;20011;-62
2024/04/08 03:27:12;;;;;;;0.10;0.10;;;;;;;11.04;61.36;99437.34;7363294;19;20037;-63
2024/04/08 03:29:38;;;;;;;0.20;0.20;;;;;;;11.05;60.99;99431.22;7359137;19;20029;-61
2024/04/08 03:32:04;;;;;;;0.10;0.10;;;;;;;11.05;60.81;99436.44;7362250;19;20011;-63
2024/04/08 03:34:31;;;;;;;0.10;0.10;;;;;;;10.93;60.95;99416.06;7359268;19;20007;-63
2024/04/08 03:36:57;;;;;;;;;;;;;;;11.10;59.23;99439.69;7365753;19;20010;-63
2024/04/08 03:39:22;;;;;;;0.10;0.10;;;;;;;11.08;60.63;99436.28;7362764;19;20280;-63
2024/04/08 03:41:50;;;;;;;0.10;0.10;;;;;;;11.08;61.18;99441.50;7361643;19;20474;-63
2024/04/08 03:44:15;;;;;;;;;;;;;;;11.11;59.71;99438.78;7361780;19;20014;-63
2024/04/08 03:46:41;;;;;;;0.10;0.10;;;;;;;11.06;61.27;99438.13;7361765;19;19915;-63
2024/04/08 03:49:06;;;;;;;0.10;0.10;;;;;;;11.08;61.49;99438.91;7357101;19;20031;-63
2024/04/08 03:51:31;;;;;;;0.10;0.10;;;;;;;11.08;61.92;99436.28;7360771;19;20102;-62
2024/04/08 03:53:57;;;;;;;0.10;0.10;;;;;;;11.08;61.71;99436.28;7356188;19;20025;-62
2024/04/08 03:56:22;;;;;;;0.10;0.10;;;;;;;11.06;61.55;99432.06;7363151;19;20019;-63
2024/04/08 03:58:47;;;;;;;0.10;0.10;;;;;;;11.07;61.65;99429.38;7358072;19;20031;-63
2024/04/08 04:01:13;;;;;;;0.10;0.10;;;;;;;11.13;61.85;99439.53;7363163;19;20038;-63
2024/04/08 04:03:38;;;;;;;0.10;0.10;;;;;;;11.15;62.31;99442.06;7355972;19;20407;-63
2024/04/08 04:06:05;;;;;;;0.10;0.10;;;;;;;11.16;62.09;99439.41;7359951;19;20022;-62
2024/04/08 04:08:30;;;;;;;0.10;0.10;;;;;;;11.14;62.47;99427.31;7357205;19;20011;-62
2024/04/08 04:10:56;;;;;;;0.10;0.10;;;;;;;11.21;62.75;99441.81;7358362;19;20003;-63
2024/04/08 04:13:22;;;;;;;0.10;0.10;;;;;;;11.05;62.74;99412.94;7362129;19;20102;-63
2024/04/08 04:15:47;;;;;;;0.10;0.10;;;;;;;11.26;62.59;99441.63;7361228;19;20086;-63
2024/04/08 04:18:13;;;;;;;0.10;0.10;;;;;;;11.28;63.00;99442.38;7366641;19;20379;-63
2024/04/08 04:20:44;;;;;;;0.10;0.10;;;;;;;11.31;62.10;99442.25;7367900;19;20042;-63
2024/04/08 04:23:10;;;;;;;0.10;0.10;;;;;;;11.13;62.56;99413.41;7364645;19;20015;-63
2024/04/08 04:25:36;;;;;;;0.10;0.10;;;;;;;11.32;62.79;99443.94;7367656;19;20015;-63
2024/04/08 04:28:02;;;;;;;0.10;0.10;;;;;;;11.32;62.77;99443.94;7362816;19;20010;-63
2024/04/08 04:30:28;;;;;;;0.00;0.00;;;;;;;11.22;62.63;99421.75;7368933;19;20426;-63
2024/04/08 04:32:54;;;;;;;0.10;0.10;;;;;;;11.28;62.76;99439.78;7367271;19;20018;-63
2024/04/08 04:35:20;;;;;;;0.10;0.10;;;;;;;11.37;63.12;99447.19;7368647;19;20014;-63
2024/04/08 04:37:46;;;;;;;0.10;0.10;;;;;;;11.22;62.92;99419.16;7365354;19;19999;-63
2024/04/08 04:40:11;;;;;;;0.10;0.10;;;;;;;11.26;63.16;99418.09;7368430;19;20022;-63
2024/04/08 04:42:37;;;;;;;0.10;0.10;;;;;;;11.39;63.32;99446.19;7365551;19;20002;-63
2024/04/08 04:45:04;;;;;;;0.20;0.20;;;;;;;11.29;63.34;99425.78;7363963;19;20014;-63
2024/04/08 04:47:29;;;;;;;0.10;0.10;;;;;;;11.41;63.03;99444.38;7365321;19;20743;-63
2024/04/08 04:49:55;;;;;;;0.10;0.10;;;;;;;11.35;63.42;99431.59;7368248;19;20388;-64
2024/04/08 04:52:20;;;;;;;0.10;0.10;;;;;;;11.24;63.39;99412.91;7365161;19;20013;-63
2024/04/08 04:54:46;;;;;;;0.10;0.10;;;;;;;11.42;63.36;99451.28;7368305;19;20019;-63
2024/04/08 04:57:11;;;;;;;0.10;0.10;;;;;;;11.43;63.68;99446.91;7362599;19;20066;-63
2024/04/08 04:59:36;;;;;;;0.10;0.10;;;;;;;11.38;63.45;99433.19;7369708;19;20010;-63
2024/04/08 05:02:02;;;;;;;0.10;0.10;;;;;;;11.30;63.54;99419.63;7366923;19;20014;-63
2024/04/08 05:04:27;;;;;;;0.10;0.10;;;;;;;11.44;63.95;99449.44;7366700;19;20475;-63
2024/04/08 05:06:53;;;;;;;0.10;0.10;;;;;;;11.44;63.60;99443.38;7366303;19;20481;-63
2024/04/08 05:09:18;;;;;;;0.10;0.10;;;;;;;11.43;63.74;99449.53;7363044;19;20781;-63
2024/04/08 05:11:43;;;;;;;0.10;0.10;;;;;;;11.45;63.64;99450.28;7365898;19;20007;-63
2024/04/08 05:14:09;;;;;;;0.08;0.08;;;;;;;11.43;63.63;99446.91;7363979;19;20017;-63
2024/04/08 05:16:34;;;;;;;0.10;0.10;;;;;;;11.43;63.60;99449.53;7368915;19;20029;-63
2024/04/08 05:18:59;;;;;;;0.03;0.03;;;;;;;11.47;64.16;99455.47;7361339;19;20011;-63
2024/04/08 05:21:25;;;;;;;0.10;0.10;;;;;;;11.48;64.38;99455.38;7361838;19;20627;-63
2024/04/08 05:23:50;;;;;;;0.10;0.10;;;;;;;11.46;63.86;99452.00;7366206;19;20048;-63
2024/04/08 05:26:16;;;;;;;0.00;0.00;;;;;;;11.35;64.18;99431.59;7362682;19;20007;-63
2024/04/08 05:28:42;;;;;;;0.00;0.00;;;;;;;11.49;64.66;99454.47;7362677;19;20505;-63
2024/04/08 05:31:08;;;;;;;0.10;0.10;;;;;;;11.49;64.61;99451.84;7364484;19;20002;-63
2024/04/08 05:33:33;;;;;;;0.10;0.10;;;;;;;11.49;64.59;99445.78;7367581;19;20515;-63
2024/04/08 05:35:59;;;;;;;0.10;0.10;;;;;;;11.41;64.90;99441.75;7361468;19;20334;-63
2024/04/08 05:38:25;;;;;;;0.10;0.10;;;;;;;11.49;64.91;99451.00;7365188;19;20951;-63
2024/04/08 05:40:50;;;;;;;0.10;0.10;;;;;;;11.47;64.96;99453.69;7366411;19;20006;-63
2024/04/08 05:43:16;;;;;;;0.20;0.20;;;;;;;11.37;65.00;99428.91;7345417;19;20011;-63
2024/04/08 05:45:42;;;;;;;0.10;0.10;;;;;;;11.49;64.74;99451.84;7363324;19;20026;-63
2024/04/08 05:48:08;;;;;;;0.10;0.10;;;;;;;11.49;65.04;99451.00;7368147;19;20014;-63
2024/04/08 05:50:33;;;;;;;0.10;0.10;;;;;;;11.48;64.90;99444.94;7357948;19;20025;-62
2024/04/08 05:52:59;;;;;;;0.10;0.10;;;;;;;11.46;65.02;99441.53;7359895;19;20382;-63
2024/04/08 05:55:25;;;;;;;0.10;0.10;;;;;;;11.46;65.26;99438.94;7362427;19;20018;-63
2024/04/08 05:57:50;;;;;;;0.00;0.00;;;;;;;11.49;64.92;99454.47;7359912;19;20051;-63
2024/04/08 06:00:16;;;;;;;0.10;0.10;;;;;;;11.50;65.01;99450.91;7362218;19;20019;-63
2024/04/08 06:02:42;;;;;;;0.10;0.10;;;;;;;11.50;64.95;99458.75;7366550;19;20014;-63
2024/04/08 06:05:08;;;;;;;0.10;0.10;;;;;;;11.40;65.28;99433.97;7360566;19;20847;-63
2024/04/08 06:07:34;;;;;;;0.10;0.10;;;;;;;11.42;65.34;99437.38;7363984;19;20022;-62
2024/04/08 06:09:59;;;;;;;0.10;0.10;;;;;;;11.51;65.12;99452.63;7357966;19;20006;-63
2024/04/08 06:12:25;;;;;;;0.10;0.10;;;;;;;11.50;65.31;99450.91;7361368;19;20762;-63
2024/04/08 06:14:50;;;;;;;0.10;0.10;;;;;;;11.51;65.43;99450.03;7362579;19;20010;-63
2024/04/08 06:17:16;;;;;;;0.10;0.10;;;;;;;11.39;65.64;99430.50;7364429;19;20470;-63
2024/04/08 06:19:42;;;;;;;0.00;0.00;;;;;;;11.53;65.36;99444.72;7366094;19;20002;-64
2024/04/08 06:22:07;;;;;;;0.10;0.10;;;;;;;11.52;65.42;99441.25;7359224;19;20463;-63
2024/04/08 06:24:33;;;;;;;0.10;0.10;;;;;;;11.39;65.42;99416.59;7364866;19;20010;-63
2024/04/08 06:26:59;;;;;;;0.10;0.10;;;;;;;11.51;65.92;99436.09;7356971;19;20014;-63
2024/04/08 06:29:24;;;;;;;0.20;0.20;;;;;;;11.56;65.87;99444.59;7358915;19;20033;-63
2024/04/08 06:31:49;;;;;;;0.15;0.15;;;;;;;11.57;65.81;99447.13;7362148;19;20021;-63
2024/04/08 06:34:15;;;;;;;0.20;0.20;;;;;;;11.58;65.94;99448.81;7361231;19;20474;-63
2024/04/08 06:36:40;;;;;;;0.10;0.10;;;;;;;11.60;65.92;99451.34;7361288;19;20086;-63
2024/04/08 06:39:06;;;;;;;0.13;0.13;;;;;;;11.60;65.79;99446.94;7361727;19;20007;-63
2024/04/08 06:41:34;;;;;;;0.10;0.10;;;;;;;11.63;66.09;99443.38;7361296;19;20014;-63
2024/04/08 06:43:59;;;;;;;0.10;0.10;;;;;;;11.63;65.65;99449.44;7360081;19;20369;-63
2024/04/08 06:46:25;;;;;;;0.10;0.10;;;;;;;11.51;65.95;99423.88;7362341;19;20010;-63
2024/04/08 06:48:50;;;;;;;0.17;0.17;;;;;;;11.63;65.89;99444.22;7355195;19;20017;-63
2024/04/08 06:51:16;;;;;;;0.08;0.08;;;;;;;11.65;65.70;99438.91;7359510;19;20014;-63
2024/04/08 06:53:41;;;;;;;0.10;0.10;;;;;;;11.51;66.03;99418.66;7362281;19;20834;-63
2024/04/08 06:56:06;;;;;;;0.10;0.10;;;;;;;11.64;66.25;99430.22;7358651;19;20018;-63
2024/04/08 06:58:32;;;;;;;0.10;0.10;;;;;;;11.66;65.87;99438.84;7362341;19;20010;-63
2024/04/08 07:00:57;;;;;;;0.10;0.10;;;;;;;11.67;65.78;99444.91;7363705;19;20444;-63
2024/04/08 07:03:23;;;;;;;0.10;0.10;;;;;;;11.67;65.57;99442.31;7361973;19;20019;-63
2024/04/08 07:05:48;;;;;;;0.10;0.10;;;;;;;11.67;65.88;99439.69;7356357;19;20354;-63
2024/04/08 07:08:16;;;;;;;0.10;0.10;;;;;;;11.68;65.23;99438.75;7362715;19;20002;-63
2024/04/08 07:10:44;;;;;;;0.10;0.10;;;;;;;11.67;65.65;99445.75;7358615;19;20007;-63
2024/04/08 07:13:10;;;;;;;0.10;0.10;;;;;;;11.66;65.37;99449.31;7362688;19;20008;-63
2024/04/08 07:15:35;;;;;;;0.10;0.10;;;;;;;11.67;65.00;99445.75;7359920;19;20025;-63
2024/04/08 07:18:01;;;;;;;0.10;0.10;;;;;;;11.66;65.29;99451.91;7362860;19;20837;-63
2024/04/08 07:20:26;;;;;;;0.10;0.10;;;;;;;11.65;65.09;99450.19;7362013;19;20014;-64
2024/04/08 07:22:51;;;;;;;0.10;0.10;;;;;;;11.66;64.83;99453.69;7361622;19;20010;-63
2024/04/08 07:25:17;;;;;;;0.10;0.10;;;;;;;11.66;65.37;99449.31;7362013;19;20432;-63
2024/04/08 07:27:42;;;;;;;0.10;0.10;;;;;;;11.66;65.28;99453.69;7360243;19;20011;-63
2024/04/08 07:30:08;;;;;;;0.05;0.05;;;;;;;11.64;65.44;99456.34;7354832;19;20007;-63
2024/04/08 07:32:34;;;;;;;0.15;0.15;;;;;;;11.58;64.79;99459.25;7362155;19;20039;-63
2024/04/08 07:34:59;;;;;;;0.10;0.10;;;;;;;11.49;65.05;99438.78;7356027;19;20035;-63
2024/04/08 07:37:28;;;;;;;0.10;0.10;;;;;;;11.66;65.13;99465.00;7332241;19;20025;-63
2024/04/08 07:39:53;;;;;;;0.13;0.13;;;;;;;11.64;65.20;99469.44;7359336;19;20003;-62
2024/04/08 07:42:18;;;;;;;0.10;0.10;;;;;;;11.63;65.49;99459.91;7363535;19;20021;-63
2024/04/08 07:44:44;;;;;;;0.10;0.10;;;;;;;11.51;65.41;99444.78;7354996;19;20565;-63
2024/04/08 07:47:09;;;;;;;0.10;0.10;;;;;;;11.58;65.44;99464.50;7360782;19;20045;-63
2024/04/08 07:49:35;;;;;;;0.05;0.05;;;;;;;11.56;65.27;99466.34;7353382;19;20113;-63
2024/04/08 07:52:02;;;;;;;0.10;0.10;;;;;;;11.59;65.79;99463.56;7363358;19;20018;-63
2024/04/08 07:54:28;;;;;;;0.10;0.10;;;;;;;11.60;65.92;99465.25;7367023;19;20086;-64
2024/04/08 07:56:54;;;;;;;0.10;0.10;;;;;;;11.61;65.24;99466.97;7368848;19;20010;-63
2024/04/08 07:59:19;;;;;;;0.10;0.10;;;;;;;11.60;65.52;99467.88;7369051;19;20010;-63
2024/04/08 08:01:45;;;;;;;0.10;0.10;;;;;;;11.59;65.97;99458.34;7367387;19;20023;-63
2024/04/08 08:04:10;;;;;;;0.10;0.10;;;;;;;11.60;65.85;99462.63;7365001;19;20476;-63
2024/04/08 08:06:36;;;;;;;0.10;0.10;;;;;;;11.57;64.97;99461.97;7368399;19;20032;-63
2024/04/08 08:09:03;;;;;;;0.10;0.10;;;;;;;11.61;65.67;99464.38;7365812;19;20010;-63
2024/04/08 08:11:28;;;;;;;0.10;0.10;;;;;;;11.62;65.62;99460.81;7366038;19;20015;-63
2024/04/08 08:13:53;;;;;;;0.10;0.10;;;;;;;11.62;66.32;99447.75;7371253;19;20034;-63
2024/04/08 08:16:19;;;;;;;0.10;0.10;;;;;;;11.51;66.11;99429.09;7365973;19;20006;-63
2024/04/08 08:18:45;;;;;;;0.10;0.10;;;;;;;11.64;66.28;99445.91;7367730;19;20645;-63
2024/04/08 08:21:11;;;;;;;0.10;0.10;;;;;;;11.65;66.35;99442.34;7365045;19;20406;-63
2024/04/08 08:23:36;;;;;;;0.10;0.10;;;;;;;11.65;66.70;99439.75;7367600;19;20010;-63
2024/04/08 08:26:02;;;;;;;0.10;0.10;;;;;;;11.70;66.66;99440.38;7362356;19;20007;-63
2024/04/08 08:28:27;;;;;;;0.10;0.10;;;;;;;11.64;66.35;99424.97;7368209;19;20018;-63
2024/04/08 08:30:53;;;;;;;0.10;0.10;;;;;;;11.81;66.87;99436.41;7367536;19;20014;-63
2024/04/08 08:33:20;;;;;;;0.10;0.10;;;;;;;11.84;66.54;99437.13;7365937;19;20007;-63
2024/04/08 08:35:46;;;;;;;0.10;0.10;;;;;;;11.89;66.50;99444.78;7366827;19;20010;-63
2024/04/08 08:38:11;;;;;;;0.10;0.10;;;;;;;11.90;66.37;99443.84;7366397;19;20015;-63
2024/04/08 08:40:54;;;;;;;0.10;0.10;;;;;;;11.94;66.02;99445.41;7367050;19;20018;-64
2024/04/08 08:43:31;;;;;;;0.10;0.10;;;;;;;12.00;66.41;99452.94;7368065;19;20006;-63
2024/04/08 08:45:58;;;;;;;0.00;0.00;;;;;;;12.02;66.42;99456.34;7363249;19;20014;-63
2024/04/08 08:48:24;;;;;;;0.00;0.00;;;;;;;11.89;66.49;99434.31;7366332;19;20035;-63
2024/04/08 08:50:50;;;;;;;0.10;0.10;;;;;;;12.05;66.55;99458.78;7360282;19;20010;-63
2024/04/08 08:53:16;;;;;;;0.10;0.10;;;;;;;12.06;66.73;99454.41;7360286;19;20022;-63
2024/04/08 08:55:43;;;;;;;0.10;0.10;;;;;;;12.09;66.69;99452.50;7361896;19;21395;-64
2024/04/08 08:58:10;;;;;;;0.10;0.10;;;;;;;12.10;66.50;99433.25;7366551;19;20010;-63
2024/04/08 09:00:39;;;;;;;0.10;0.10;;;;;;;12.15;65.89;99430.41;7361966;19;20019;-63
2024/04/08 09:03:12;;;;;;;0.10;0.10;;;;;;;12.18;66.23;99425.88;7361988;19;20558;-62
2024/04/08 09:05:38;;;;;;;0.10;0.10;;;;;;;12.16;66.34;99430.31;7366340;19;20010;-63
2024/04/08 09:08:04;;;;;;;0.10;0.10;;;;;;;12.18;66.28;99425.88;7364936;19;20013;-63
2024/04/08 09:11:04;;;;;;;0.10;0.10;;;;;;;12.24;65.16;99416.88;7370006;19;20010;-63
2024/04/08 09:13:31;;;;;;;0.15;0.15;;;;;;;12.19;65.86;99417.09;7356821;19;20015;-64
2024/04/08 09:15:56;;;;;;;0.10;0.10;;;;;;;12.13;66.05;99406.94;7364628;19;20021;-63
2024/04/08 09:18:21;;;;;;;0.10;0.10;;;;;;;12.19;66.41;99409.25;7362549;19;20374;-63
2024/04/08 09:20:47;;;;;;;0.10;0.10;;;;;;;12.19;66.03;99406.63;7364630;19;20014;-63
2024/04/08 09:23:13;;;;;;;0.10;0.10;;;;;;;12.22;66.12;99410.03;7363686;19;20025;-63
2024/04/08 09:25:39;;;;;;;0.10;0.10;;;;;;;12.22;66.33;99410.88;7365452;19;20014;-63
2024/04/08 09:28:06;;;;;;;0.10;0.10;;;;;;;12.23;66.45;99401.25;7362149;19;20010;-63
2024/04/08 09:30:32;;;;;;;0.10;0.10;;;;;;;12.19;65.97;99396.16;7366227;19;21107;-64
2024/04/08 09:32:57;;;;;;;0.10;0.10;;;;;;;12.26;65.93;99395.84;7364451;19;20021;-63
2024/04/08 09:35:24;;;;;;;0.10;0.10;;;;;;;12.30;66.42;99397.41;7364715;19;20942;-63
2024/04/08 09:37:54;;;;;;;0.13;0.13;;;;;;;12.33;66.39;99386.78;7359618;19;20002;-63
2024/04/08 09:40:23;;;;;;;0.10;0.10;;;;;;;12.35;66.01;99380.53;7367657;19;20022;-63
2024/04/08 09:42:50;;;;;;;0.08;0.08;;;;;;;12.40;66.36;99382.91;7359685;19;20588;-63
2024/04/08 09:45:18;;;;;;;0.10;0.10;;;;;;;12.47;66.43;99384.31;7366846;19;20018;-63
2024/04/08 09:47:45;;;;;;;0.10;0.10;;;;;;;12.49;66.12;99374.59;7359887;19;20026;-63
2024/04/08 09:50:11;;;;;;;0.10;0.10;;;;;;;12.56;66.04;99382.97;7365056;19;20026;-62
2024/04/08 09:52:38;;;;;;;0.10;0.10;;;;;;;12.62;65.77;99373.03;7360227;19;20022;-63
2024/04/08 09:55:03;;;;;;;0.10;0.10;;;;;;;12.65;66.09;99372.84;7363654;19;20010;-63
2024/04/08 09:57:35;;;;;;;0.10;0.10;;;;;;;12.73;65.90;99369.84;7364592;19;20018;-63
2024/04/08 10:00:02;;;;;;;0.10;0.10;;;;;;;12.75;66.02;99367.97;7362635;19;20019;-64
2024/04/08 10:02:37;;;;;;;0.10;0.10;;;;;;;12.83;65.35;99365.81;7365556;19;20018;-64
2024/04/08 10:05:04;;;;;;;0.10;0.10;;;;;;;12.87;65.50;99366.47;7364938;19;20048;-64
2024/04/08 10:07:31;;;;;;;0.10;0.10;;;;;;;12.90;65.74;99374.19;7362055;19;20014;-63
2024/04/08 10:10:01;;;;;;;0.10;0.10;;;;;;;12.95;65.48;99369.53;7359549;19;20454;-63
2024/04/08 10:12:34;;;;;;;0.15;0.15;;;;;;;13.01;65.45;99363.97;7359708;19;20014;-63
2024/04/08 10:15:09;;;;;;;0.10;0.10;;;;;;;13.03;65.31;99363.88;7362291;19;20045;-63
2024/04/08 10:17:36;;;;;;;0.10;0.10;;;;;;;13.04;65.30;99358.56;7362441;19;20101;-63
2024/04/08 10:20:11;;;;;;;0.10;0.10;;;;;;;13.05;65.56;99360.25;7359958;19;20015;-63
2024/04/08 10:22:38;;;;;;;0.10;0.10;;;;;;;13.10;65.30;99350.38;7360457;19;20506;-63
2024/04/08 10:25:04;;;;;;;0.10;0.10;;;;;;;13.11;65.31;99352.06;7362675;19;20121;-63
2024/04/08 10:27:33;;;;;;;0.13;0.13;;;;;;;13.15;65.42;99340.47;7363588;19;20074;-63
2024/04/08 10:29:59;;;;;;;0.10;0.10;;;;;;;13.15;65.51;99350.13;7361124;19;20024;-63
2024/04/08 10:32:25;;;;;;;0.10;0.10;;;;;;;13.09;65.65;99334.75;7362654;19;20018;-63
2024/04/08 10:34:54;;;;;;;0.05;0.05;;;;;;;13.19;65.15;99341.16;7357157;19;19998;-64
2024/04/08 10:37:19;;;;;;;0.10;0.10;;;;;;;13.18;65.39;99345.56;7363114;19;20375;-63
2024/04/08 10:39:44;;;;;;;0.10;0.10;;;;;;;13.18;65.90;99345.56;7365235;19;20021;-63
2024/04/08 10:42:14;;;;;;;0.10;0.10;;;;;;;13.11;65.29;99319.75;7360027;19;20014;-63
2024/04/08 10:44:40;;;;;;;0.10;0.10;;;;;;;13.22;65.81;99336.59;7364133;19;20917;-63
2024/04/08 10:47:07;;;;;;;0.10;0.10;;;;;;;13.10;65.88;99315.47;7359212;19;20017;-64
2024/04/08 10:49:34;;;;;;;0.10;0.10;;;;;;;13.27;65.51;99333.75;7363814;19;20449;-64
2024/04/08 10:52:01;;;;;;;0.10;0.10;;;;;;;13.29;65.66;99331.06;7362762;19;20049;-64
2024/04/08 10:54:27;;;;;;;0.10;0.10;;;;;;;13.30;65.65;99333.56;7355817;19;20019;-63
2024/04/08 10:56:54;;;;;;;0.10;0.10;;;;;;;13.31;65.78;99331.81;7357955;19;20034;-63
2024/04/08 10:59:19;;;;;;;0.10;0.10;;;;;;;13.30;65.97;99325.72;7359258;19;20018;-63
2024/04/08 11:01:44;;;;;;;0.10;0.10;;;;;;;13.31;66.04;99331.81;7361010;19;20017;-63
2024/04/08 11:04:11;;;;;;;0.10;0.10;;;;;;;13.33;66.17;99327.31;7362175;19;20014;-63
2024/04/08 11:06:36;;;;;;;0.10;0.10;;;;;;;13.18;65.96;99298.38;7356844;19;20446;-63
2024/04/08 11:09:04;;;;;;;0.10;0.10;;;;;;;13.38;66.13;99310.41;7361952;19;20121;-63
2024/04/08 11:11:31;;;;;;;0.10;0.10;;;;;;;13.43;65.75;99313.63;7360721;19;20350;-63
2024/04/08 11:13:56;;;;;;;0.10;0.10;;;;;;;13.45;65.92;99310.91;7362956;19;20755;-63
2024/04/08 11:16:22;;;;;;;0.10;0.10;;;;;;;13.46;66.28;99302.09;7359710;19;20018;-64
2024/04/08 11:18:47;;;;;;;0.10;0.10;;;;;;;13.50;66.23;99301.00;7363947;19;20030;-63
2024/04/08 11:21:13;;;;;;;0.10;0.10;;;;;;;13.54;65.95;99305.13;7358575;19;20015;-63
2024/04/08 11:23:41;;;;;;;0.10;0.10;;;;;;;13.58;66.33;99304.00;7361920;19;20031;-63
2024/04/08 11:26:07;;;;;;;0.10;0.10;;;;;;;13.62;66.34;99302.91;7363335;19;20013;-63
2024/04/08 11:28:33;;;;;;;0.10;0.10;;;;;;;13.64;66.08;99305.47;7364794;19;20805;-64